sensor_id;sensor_type;location;lat;lon;timestamp;pressure;altitude;pressure_sealevel;temperature;humidity
54562;BME280;69047;53.358;-1.486;2023-07-28T00:01:54;99387.09;;;15.68;77.12
54562;BME280;69047;53.358;-1.486;2023-07-28T00:04:19;99373.09;;;15.69;76.74
54562;BME280;69047;53.358;-1.486;2023-07-28T00:06:44;99378.47;;;15.83;76.33
54562;BME280;69047;53.358;-1.486;2023-07-28T00:09:10;99377.69;;;15.91;76.21
54562;BME280;69047;53.358;-1.486;2023-07-28T00:11:35;99382.69;;;15.97;75.63
54562;BME280;69047;53.358;-1.486;2023-07-28T00:14:00;99381.25;;;16.00;75.86
54562;BME280;69047;53.358;-1.486;2023-07-28T00:16:27;99378.47;;;15.83;76.01
54562;BME280;69047;53.358;-1.486;2023-07-28T00:18:52;99375.63;;;15.57;77.17
54562;BME280;69047;53.358;-1.486;2023-07-28T00:21:18;99379.66;;;15.60;77.26
54562;BME280;69047;53.358;-1.486;2023-07-28T00:23:43;99378.13;;;15.84;76.61
54562;BME280;69047;53.358;-1.486;2023-07-28T00:26:08;99378.63;;;15.86;76.40
54562;BME280;69047;53.358;-1.486;2023-07-28T00:28:34;99375.44;;;16.01;75.82
54562;BME280;69047;53.358;-1.486;2023-07-28T00:30:59;99375.31;;;15.59;77.46
54562;BME280;69047;53.358;-1.486;2023-07-28T00:33:24;99376.63;;;15.61;76.84
54562;BME280;69047;53.358;-1.486;2023-07-28T00:35:50;99381.41;;;15.03;79.24
54562;BME280;69047;53.358;-1.486;2023-07-28T00:38:15;99374.22;;;14.84;79.98
54562;BME280;69047;53.358;-1.486;2023-07-28T00:40:41;99380.91;;;15.01;79.98
54562;BME280;69047;53.358;-1.486;2023-07-28T00:43:06;99375.31;;;15.28;79.62
54562;BME280;69047;53.358;-1.486;2023-07-28T00:45:32;99383.91;;;15.43;78.92
54562;BME280;69047;53.358;-1.486;2023-07-28T00:47:58;99387.56;;;15.08;79.13
54562;BME280;69047;53.358;-1.486;2023-07-28T00:50:24;99377.94;;;15.41;78.90
54562;BME280;69047;53.358;-1.486;2023-07-28T00:52:50;99381.66;;;15.76;77.09
54562;BME280;69047;53.358;-1.486;2023-07-28T00:55:16;99377.03;;;15.85;76.22
54562;BME280;69047;53.358;-1.486;2023-07-28T00:57:41;99372.63;;;15.67;76.82
54562;BME280;69047;53.358;-1.486;2023-07-28T01:00:07;99377.84;;;15.86;76.38
54562;BME280;69047;53.358;-1.486;2023-07-28T01:02:33;99374.16;;;15.90;76.01
54562;BME280;69047;53.358;-1.486;2023-07-28T01:04:59;99378.56;;;15.38;77.67
54562;BME280;69047;53.358;-1.486;2023-07-28T01:10:13;99387.09;;;15.68;76.91
54562;BME280;69047;53.358;-1.486;2023-07-28T01:12:39;99384.69;;;15.75;76.69
54562;BME280;69047;53.358;-1.486;2023-07-28T01:15:06;99381.13;;;15.74;76.48
54562;BME280;69047;53.358;-1.486;2023-07-28T01:17:31;99378.06;;;15.59;77.02
54562;BME280;69047;53.358;-1.486;2023-07-28T01:19:57;99375.53;;;15.71;76.53
54562;BME280;69047;53.358;-1.486;2023-07-28T01:28:11;99381.44;;;15.64;76.68
54562;BME280;69047;53.358;-1.486;2023-07-28T01:30:38;99377.69;;;15.52;76.88
54562;BME280;69047;53.358;-1.486;2023-07-28T01:33:06;99386.59;;;15.13;78.30
54562;BME280;69047;53.358;-1.486;2023-07-28T01:35:32;99389.75;;;15.28;77.88
54562;BME280;69047;53.358;-1.486;2023-07-28T01:37:57;99380.53;;;15.16;79.00
54562;BME280;69047;53.358;-1.486;2023-07-28T01:40:23;99382.75;;;15.44;77.66
54562;BME280;69047;53.358;-1.486;2023-07-28T01:42:48;99379.88;;;15.41;77.59
54562;BME280;69047;53.358;-1.486;2023-07-28T01:45:14;99384.97;;;15.12;78.41
54562;BME280;69047;53.358;-1.486;2023-07-28T01:47:39;99383.19;;;14.85;79.66
54562;BME280;69047;53.358;-1.486;2023-07-28T01:50:05;99393.34;;;15.15;79.09
54562;BME280;69047;53.358;-1.486;2023-07-28T01:52:30;99389.34;;;15.13;78.34
54562;BME280;69047;53.358;-1.486;2023-07-28T01:54:56;99391.66;;;15.28;77.90
54562;BME280;69047;53.358;-1.486;2023-07-28T01:57:21;99386.69;;;15.30;77.76
54562;BME280;69047;53.358;-1.486;2023-07-28T01:59:47;99397.94;;;15.28;77.92
54562;BME280;69047;53.358;-1.486;2023-07-28T02:02:12;99394.06;;;15.52;76.79
54562;BME280;69047;53.358;-1.486;2023-07-28T02:04:37;99398.72;;;15.51;76.86
54562;BME280;69047;53.358;-1.486;2023-07-28T02:07:03;99396.78;;;15.52;76.65
54562;BME280;69047;53.358;-1.486;2023-07-28T02:09:28;99397.31;;;15.09;77.77
54562;BME280;69047;53.358;-1.486;2023-07-28T02:11:53;99386.84;;;15.03;79.00
54562;BME280;69047;53.358;-1.486;2023-07-28T02:14:19;99391.09;;;15.39;77.58
54562;BME280;69047;53.358;-1.486;2023-07-28T02:16:44;99384.81;;;15.39;77.18
54562;BME280;69047;53.358;-1.486;2023-07-28T02:19:10;99388.84;;;15.41;77.04
54562;BME280;69047;53.358;-1.486;2023-07-28T02:21:35;99383.53;;;15.36;76.97
54562;BME280;69047;53.358;-1.486;2023-07-28T02:24:01;99384.34;;;15.37;77.15
54562;BME280;69047;53.358;-1.486;2023-07-28T02:26:26;99368.97;;;14.88;78.45
54562;BME280;69047;53.358;-1.486;2023-07-28T02:28:51;99379.28;;;15.22;77.93
54562;BME280;69047;53.358;-1.486;2023-07-28T02:31:17;99371.50;;;15.07;78.55
54562;BME280;69047;53.358;-1.486;2023-07-28T02:33:42;99372.97;;;15.13;78.29
54562;BME280;69047;53.358;-1.486;2023-07-28T02:36:07;99366.50;;;15.31;77.29
54562;BME280;69047;53.358;-1.486;2023-07-28T02:38:33;99370.69;;;15.37;76.89
54562;BME280;69047;53.358;-1.486;2023-07-28T02:40:59;99372.94;;;15.35;76.96
54562;BME280;69047;53.358;-1.486;2023-07-28T02:43:24;99366.03;;;15.07;78.14
54562;BME280;69047;53.358;-1.486;2023-07-28T02:45:56;99366.94;;;15.24;77.39
54562;BME280;69047;53.358;-1.486;2023-07-28T02:48:22;99368.19;;;15.18;77.45
54562;BME280;69047;53.358;-1.486;2023-07-28T02:50:50;99371.13;;;15.30;77.27
54562;BME280;69047;53.358;-1.486;2023-07-28T02:53:16;99370.09;;;15.18;77.48
54562;BME280;69047;53.358;-1.486;2023-07-28T02:55:45;99364.88;;;14.99;78.29
54562;BME280;69047;53.358;-1.486;2023-07-28T02:58:11;99371.88;;;14.91;78.98
54562;BME280;69047;53.358;-1.486;2023-07-28T03:00:37;99364.00;;;14.68;79.91
54562;BME280;69047;53.358;-1.486;2023-07-28T03:03:03;99368.19;;;14.52;80.09
54562;BME280;69047;53.358;-1.486;2023-07-28T03:05:31;99363.88;;;14.73;80.18
54562;BME280;69047;53.358;-1.486;2023-07-28T03:07:56;99361.78;;;14.92;79.26
54562;BME280;69047;53.358;-1.486;2023-07-28T03:10:22;99367.72;;;15.16;78.03
54562;BME280;69047;53.358;-1.486;2023-07-28T03:12:47;99369.66;;;15.24;77.50
54562;BME280;69047;53.358;-1.486;2023-07-28T03:15:12;99362.06;;;15.13;77.67
54562;BME280;69047;53.358;-1.486;2023-07-28T03:17:38;99366.59;;;14.95;78.31
54562;BME280;69047;53.358;-1.486;2023-07-28T03:20:03;99365.25;;;14.62;80.16
54562;BME280;69047;53.358;-1.486;2023-07-28T03:22:29;99364.75;;;15.04;79.04
54562;BME280;69047;53.358;-1.486;2023-07-28T03:24:55;99367.13;;;15.28;77.30
54562;BME280;69047;53.358;-1.486;2023-07-28T03:27:21;99368.41;;;15.30;77.00
54562;BME280;69047;53.358;-1.486;2023-07-28T03:29:46;99368.81;;;15.15;77.31
54562;BME280;69047;53.358;-1.486;2023-07-28T03:32:12;99365.50;;;15.27;76.76
54562;BME280;69047;53.358;-1.486;2023-07-28T03:34:37;99373.00;;;15.21;76.94
54562;BME280;69047;53.358;-1.486;2023-07-28T03:37:02;99377.41;;;15.31;76.71
54562;BME280;69047;53.358;-1.486;2023-07-28T03:39:28;99375.25;;;15.19;76.79
54562;BME280;69047;53.358;-1.486;2023-07-28T03:41:55;99379.41;;;15.17;77.33
54562;BME280;69047;53.358;-1.486;2023-07-28T03:44:20;99381.06;;;15.26;76.77
54562;BME280;69047;53.358;-1.486;2023-07-28T03:46:46;99377.84;;;15.24;76.80
54562;BME280;69047;53.358;-1.486;2023-07-28T03:49:12;99374.78;;;14.95;77.68
54562;BME280;69047;53.358;-1.486;2023-07-28T03:51:38;99385.28;;;14.44;79.51
54562;BME280;69047;53.358;-1.486;2023-07-28T03:54:03;99371.28;;;14.36;80.10
54562;BME280;69047;53.358;-1.486;2023-07-28T03:56:28;99368.16;;;14.65;79.72
54562;BME280;69047;53.358;-1.486;2023-07-28T03:58:54;99378.66;;;15.03;77.59
54562;BME280;69047;53.358;-1.486;2023-07-28T04:01:19;99380.44;;;14.99;77.58
54562;BME280;69047;53.358;-1.486;2023-07-28T04:03:47;99371.50;;;15.07;77.10
54562;BME280;69047;53.358;-1.486;2023-07-28T04:06:12;99374.88;;;15.12;77.12
54562;BME280;69047;53.358;-1.486;2023-07-28T04:08:38;99383.56;;;15.14;76.82
54562;BME280;69047;53.358;-1.486;2023-07-28T04:11:03;99372.97;;;14.90;77.00
54562;BME280;69047;53.358;-1.486;2023-07-28T04:13:28;99376.53;;;14.33;79.26
54562;BME280;69047;53.358;-1.486;2023-07-28T04:15:54;99386.00;;;14.35;80.07
54562;BME280;69047;53.358;-1.486;2023-07-28T04:18:19;99388.28;;;14.56;79.86
54562;BME280;69047;53.358;-1.486;2023-07-28T04:20:45;99390.94;;;14.91;77.83
54562;BME280;69047;53.358;-1.486;2023-07-28T04:23:11;99398.56;;;15.03;76.97
54562;BME280;69047;53.358;-1.486;2023-07-28T04:25:36;99393.78;;;15.09;76.89
54562;BME280;69047;53.358;-1.486;2023-07-28T04:28:02;99396.56;;;15.17;76.61
54562;BME280;69047;53.358;-1.486;2023-07-28T04:30:27;99395.94;;;15.20;76.49
54562;BME280;69047;53.358;-1.486;2023-07-28T04:32:53;99399.63;;;15.16;76.84
54562;BME280;69047;53.358;-1.486;2023-07-28T04:35:18;99392.50;;;15.06;77.24
54562;BME280;69047;53.358;-1.486;2023-07-28T04:37:44;99394.41;;;14.61;79.08
54562;BME280;69047;53.358;-1.486;2023-07-28T04:40:10;99389.91;;;14.43;80.29
54562;BME280;69047;53.358;-1.486;2023-07-28T04:42:35;99390.31;;;14.50;80.65
54562;BME280;69047;53.358;-1.486;2023-07-28T04:45:02;99390.13;;;15.13;78.41
54562;BME280;69047;53.358;-1.486;2023-07-28T04:47:27;99390.63;;;15.46;76.80
54562;BME280;69047;53.358;-1.486;2023-07-28T04:49:52;99389.94;;;15.63;76.15
54562;BME280;69047;53.358;-1.486;2023-07-28T04:52:18;99390.66;;;15.77;76.25
54562;BME280;69047;53.358;-1.486;2023-07-28T04:54:43;99388.59;;;15.82;75.94
54562;BME280;69047;53.358;-1.486;2023-07-28T04:57:09;99383.44;;;15.89;75.86
54562;BME280;69047;53.358;-1.486;2023-07-28T04:59:34;99393.41;;;15.85;76.41
54562;BME280;69047;53.358;-1.486;2023-07-28T05:01:59;99396.97;;;15.55;77.97
54562;BME280;69047;53.358;-1.486;2023-07-28T05:04:25;99398.97;;;15.72;77.63
54562;BME280;69047;53.358;-1.486;2023-07-28T05:06:50;99398.84;;;15.24;79.09
54562;BME280;69047;53.358;-1.486;2023-07-28T05:09:15;99406.41;;;15.49;79.05
54562;BME280;69047;53.358;-1.486;2023-07-28T05:11:41;99398.81;;;15.46;79.48
54562;BME280;69047;53.358;-1.486;2023-07-28T05:14:06;99398.75;;;15.07;79.95
54562;BME280;69047;53.358;-1.486;2023-07-28T05:16:34;99393.78;;;15.09;80.75
54562;BME280;69047;53.358;-1.486;2023-07-28T05:18:59;99398.22;;;15.27;80.56
54562;BME280;69047;53.358;-1.486;2023-07-28T05:21:24;99402.66;;;15.45;79.44
54562;BME280;69047;53.358;-1.486;2023-07-28T05:23:50;99404.34;;;15.32;79.24
54562;BME280;69047;53.358;-1.486;2023-07-28T05:26:16;99390.84;;;15.49;78.52
54562;BME280;69047;53.358;-1.486;2023-07-28T05:28:41;99402.25;;;15.29;79.40
54562;BME280;69047;53.358;-1.486;2023-07-28T05:31:07;99402.88;;;15.48;79.11
54562;BME280;69047;53.358;-1.486;2023-07-28T05:33:33;99410.81;;;15.59;77.92
54562;BME280;69047;53.358;-1.486;2023-07-28T05:36:00;99408.50;;;15.30;79.05
54562;BME280;69047;53.358;-1.486;2023-07-28T05:38:26;99406.78;;;15.12;79.65
54562;BME280;69047;53.358;-1.486;2023-07-28T05:40:58;99406.31;;;15.10;80.46
54562;BME280;69047;53.358;-1.486;2023-07-28T05:43:25;99414.47;;;15.32;80.03
54562;BME280;69047;53.358;-1.486;2023-07-28T05:45:51;99414.72;;;15.44;79.22
54562;BME280;69047;53.358;-1.486;2023-07-28T05:48:16;99408.75;;;15.42;78.80
54562;BME280;69047;53.358;-1.486;2023-07-28T05:50:42;99413.75;;;15.71;78.38
54562;BME280;69047;53.358;-1.486;2023-07-28T05:53:07;99412.22;;;15.56;79.13
54562;BME280;69047;53.358;-1.486;2023-07-28T05:55:32;99406.50;;;15.66;78.17
54562;BME280;69047;53.358;-1.486;2023-07-28T05:57:58;99399.63;;;15.46;79.89
54562;BME280;69047;53.358;-1.486;2023-07-28T06:00:23;99405.63;;;15.96;78.63
54562;BME280;69047;53.358;-1.486;2023-07-28T06:02:49;99397.50;;;16.22;77.39
54562;BME280;69047;53.358;-1.486;2023-07-28T06:05:14;99400.59;;;16.38;77.35
54562;BME280;69047;53.358;-1.486;2023-07-28T06:07:40;99400.75;;;16.33;77.24
54562;BME280;69047;53.358;-1.486;2023-07-28T06:10:05;99403.31;;;16.29;77.49
54562;BME280;69047;53.358;-1.486;2023-07-28T06:12:31;99408.56;;;16.09;78.11
54562;BME280;69047;53.358;-1.486;2023-07-28T06:14:56;99401.25;;;15.87;78.65
54562;BME280;69047;53.358;-1.486;2023-07-28T06:17:22;99411.41;;;15.95;79.45
54562;BME280;69047;53.358;-1.486;2023-07-28T06:19:47;99411.03;;;16.53;77.67
54562;BME280;69047;53.358;-1.486;2023-07-28T06:22:12;99409.56;;;16.13;78.35
54562;BME280;69047;53.358;-1.486;2023-07-28T06:24:38;99413.06;;;16.13;78.32
54562;BME280;69047;53.358;-1.486;2023-07-28T06:27:03;99398.19;;;16.36;78.37
54562;BME280;69047;53.358;-1.486;2023-07-28T06:29:33;99396.94;;;16.59;76.95
54562;BME280;69047;53.358;-1.486;2023-07-28T06:31:58;99392.06;;;16.99;76.13
54562;BME280;69047;53.358;-1.486;2023-07-28T06:34:24;99398.03;;;17.10;75.48
54562;BME280;69047;53.358;-1.486;2023-07-28T06:36:49;99398.50;;;17.12;75.76
54562;BME280;69047;53.358;-1.486;2023-07-28T06:39:14;99400.09;;;17.22;74.75
54562;BME280;69047;53.358;-1.486;2023-07-28T06:41:40;99397.63;;;17.46;73.78
54562;BME280;69047;53.358;-1.486;2023-07-28T06:44:05;99396.41;;;17.26;74.75
54562;BME280;69047;53.358;-1.486;2023-07-28T06:46:33;99395.34;;;17.65;73.28
54562;BME280;69047;53.358;-1.486;2023-07-28T06:48:59;99409.81;;;17.65;72.65
54562;BME280;69047;53.358;-1.486;2023-07-28T06:51:24;99398.81;;;17.74;72.55
54562;BME280;69047;53.358;-1.486;2023-07-28T06:53:51;99412.13;;;17.93;72.18
54562;BME280;69047;53.358;-1.486;2023-07-28T06:56:16;99410.03;;;17.90;71.56
54562;BME280;69047;53.358;-1.486;2023-07-28T06:58:41;99394.72;;;17.97;71.71
54562;BME280;69047;53.358;-1.486;2023-07-28T07:01:07;99399.28;;;18.14;70.59
54562;BME280;69047;53.358;-1.486;2023-07-28T07:03:36;99399.13;;;18.10;70.70
54562;BME280;69047;53.358;-1.486;2023-07-28T07:06:01;99401.69;;;18.15;71.33
54562;BME280;69047;53.358;-1.486;2023-07-28T07:08:27;99402.25;;;18.30;70.31
54562;BME280;69047;53.358;-1.486;2023-07-28T07:10:52;99400.63;;;18.29;70.25
54562;BME280;69047;53.358;-1.486;2023-07-28T07:13:18;99408.19;;;17.73;72.54
54562;BME280;69047;53.358;-1.486;2023-07-28T07:15:43;99399.59;;;17.83;72.18
54562;BME280;69047;53.358;-1.486;2023-07-28T07:18:09;99411.00;;;17.56;71.51
54562;BME280;69047;53.358;-1.486;2023-07-28T07:20:35;99412.50;;;17.83;71.75
54562;BME280;69047;53.358;-1.486;2023-07-28T07:23:01;99418.75;;;17.92;70.88
54562;BME280;69047;53.358;-1.486;2023-07-28T07:25:26;99409.31;;;18.01;70.40
54562;BME280;69047;53.358;-1.486;2023-07-28T07:27:52;99413.78;;;17.85;70.72
54562;BME280;69047;53.358;-1.486;2023-07-28T07:30:17;99412.13;;;17.93;71.23
54562;BME280;69047;53.358;-1.486;2023-07-28T07:32:43;99416.28;;;17.99;71.71
54562;BME280;69047;53.358;-1.486;2023-07-28T07:35:08;99410.44;;;18.09;70.39
54562;BME280;69047;53.358;-1.486;2023-07-28T07:37:34;99412.31;;;18.17;70.94
54562;BME280;69047;53.358;-1.486;2023-07-28T07:39:59;99413.72;;;18.23;70.08
54562;BME280;69047;53.358;-1.486;2023-07-28T07:42:40;99418.31;;;18.10;70.03
54562;BME280;69047;53.358;-1.486;2023-07-28T07:45:08;99425.31;;;17.99;70.29
54562;BME280;69047;53.358;-1.486;2023-07-28T07:47:34;99420.91;;;18.36;70.16
54562;BME280;69047;53.358;-1.486;2023-07-28T07:49:59;99430.50;;;18.21;69.87
54562;BME280;69047;53.358;-1.486;2023-07-28T07:52:25;99426.44;;;18.28;69.53
54562;BME280;69047;53.358;-1.486;2023-07-28T07:54:51;99418.16;;;18.36;69.18
54562;BME280;69047;53.358;-1.486;2023-07-28T07:57:16;99427.91;;;18.25;69.44
54562;BME280;69047;53.358;-1.486;2023-07-28T07:59:42;99406.78;;;18.46;68.75
54562;BME280;69047;53.358;-1.486;2023-07-28T08:02:08;99415.28;;;18.33;68.65
54562;BME280;69047;53.358;-1.486;2023-07-28T08:04:33;99419.09;;;18.40;68.85
54562;BME280;69047;53.358;-1.486;2023-07-28T08:06:59;99423.59;;;18.45;68.99
54562;BME280;69047;53.358;-1.486;2023-07-28T08:09:24;99423.72;;;18.48;69.00
54562;BME280;69047;53.358;-1.486;2023-07-28T08:11:50;99420.81;;;18.53;67.99
54562;BME280;69047;53.358;-1.486;2023-07-28T08:14:15;99422.81;;;18.65;67.98
54562;BME280;69047;53.358;-1.486;2023-07-28T08:16:41;99433.59;;;18.70;68.09
54562;BME280;69047;53.358;-1.486;2023-07-28T08:19:06;99432.59;;;18.74;68.04
54562;BME280;69047;53.358;-1.486;2023-07-28T08:21:31;99427.03;;;18.83;67.82
54562;BME280;69047;53.358;-1.486;2023-07-28T08:24:02;99431.94;;;18.57;68.32
54562;BME280;69047;53.358;-1.486;2023-07-28T08:26:29;99424.91;;;18.68;68.38
54562;BME280;69047;53.358;-1.486;2023-07-28T08:28:54;99424.94;;;19.01;67.25
54562;BME280;69047;53.358;-1.486;2023-07-28T08:31:19;99432.09;;;19.14;67.41
54562;BME280;69047;53.358;-1.486;2023-07-28T08:33:45;99422.56;;;19.32;66.88
54562;BME280;69047;53.358;-1.486;2023-07-28T08:36:10;99417.97;;;19.36;65.90
54562;BME280;69047;53.358;-1.486;2023-07-28T08:38:36;99420.09;;;19.18;65.79
54562;BME280;69047;53.358;-1.486;2023-07-28T08:41:01;99427.47;;;19.39;65.79
54562;BME280;69047;53.358;-1.486;2023-07-28T08:43:27;99432.34;;;19.54;64.48
54562;BME280;69047;53.358;-1.486;2023-07-28T08:45:53;99440.31;;;19.79;63.86
54562;BME280;69047;53.358;-1.486;2023-07-28T08:48:19;99438.34;;;19.56;63.83
54562;BME280;69047;53.358;-1.486;2023-07-28T08:50:45;99438.41;;;19.26;65.01
54562;BME280;69047;53.358;-1.486;2023-07-28T08:53:10;99439.00;;;19.20;65.21
54562;BME280;69047;53.358;-1.486;2023-07-28T08:55:36;99447.03;;;19.04;65.35
54562;BME280;69047;53.358;-1.486;2023-07-28T08:58:33;99450.25;;;19.06;65.85
54562;BME280;69047;53.358;-1.486;2023-07-28T09:00:59;99447.94;;;19.29;65.41
54562;BME280;69047;53.358;-1.486;2023-07-28T09:03:27;99452.78;;;18.91;67.76
54562;BME280;69047;53.358;-1.486;2023-07-28T09:05:59;99445.16;;;19.17;67.00
54562;BME280;69047;53.358;-1.486;2023-07-28T09:08:25;99437.88;;;19.00;66.90
54562;BME280;69047;53.358;-1.486;2023-07-28T09:10:50;99448.66;;;19.05;66.77
54562;BME280;69047;53.358;-1.486;2023-07-28T09:13:17;99450.84;;;18.91;67.14
54562;BME280;69047;53.358;-1.486;2023-07-28T09:15:44;99447.41;;;19.15;66.24
54562;BME280;69047;53.358;-1.486;2023-07-28T09:18:14;99444.22;;;19.13;66.59
54562;BME280;69047;53.358;-1.486;2023-07-28T09:20:41;99453.44;;;19.29;65.60
54562;BME280;69047;53.358;-1.486;2023-07-28T09:23:07;99450.00;;;18.99;65.25
54562;BME280;69047;53.358;-1.486;2023-07-28T09:25:34;99454.06;;;19.14;64.68
54562;BME280;69047;53.358;-1.486;2023-07-28T09:28:00;99443.97;;;18.85;65.79
54562;BME280;69047;53.358;-1.486;2023-07-28T09:30:26;99446.00;;;19.09;64.97
54562;BME280;69047;53.358;-1.486;2023-07-28T09:32:54;99450.28;;;19.18;64.76
54562;BME280;69047;53.358;-1.486;2023-07-28T09:35:20;99449.47;;;19.18;65.95
54562;BME280;69047;53.358;-1.486;2023-07-28T09:37:48;99442.97;;;19.43;64.74
54562;BME280;69047;53.358;-1.486;2023-07-28T09:40:19;99442.84;;;19.40;64.99
54562;BME280;69047;53.358;-1.486;2023-07-28T09:42:46;99449.41;;;19.47;64.90
54562;BME280;69047;53.358;-1.486;2023-07-28T09:45:15;99457.66;;;19.47;64.98
54562;BME280;69047;53.358;-1.486;2023-07-28T09:47:44;99455.53;;;19.11;66.44
54562;BME280;69047;53.358;-1.486;2023-07-28T09:50:10;99458.81;;;19.05;67.22
54562;BME280;69047;53.358;-1.486;2023-07-28T09:52:42;99454.25;;;19.09;64.42
54562;BME280;69047;53.358;-1.486;2023-07-28T09:55:09;99459.47;;;19.22;64.64
54562;BME280;69047;53.358;-1.486;2023-07-28T09:57:54;99461.22;;;18.86;65.09
54562;BME280;69047;53.358;-1.486;2023-07-28T10:00:21;99455.72;;;19.06;64.58
54562;BME280;69047;53.358;-1.486;2023-07-28T10:02:48;99455.06;;;19.09;65.02
54562;BME280;69047;53.358;-1.486;2023-07-28T10:05:14;99464.38;;;19.17;66.08
54562;BME280;69047;53.358;-1.486;2023-07-28T10:07:41;99467.09;;;19.70;64.09
54562;BME280;69047;53.358;-1.486;2023-07-28T10:10:09;99457.31;;;19.61;63.72
54562;BME280;69047;53.358;-1.486;2023-07-28T10:12:51;99459.41;;;19.64;62.84
54562;BME280;69047;53.358;-1.486;2023-07-28T10:15:18;99462.81;;;19.61;63.38
54562;BME280;69047;53.358;-1.486;2023-07-28T10:17:46;99452.84;;;19.56;64.15
54562;BME280;69047;53.358;-1.486;2023-07-28T10:23:14;99458.69;;;19.55;62.39
54562;BME280;69047;53.358;-1.486;2023-07-28T10:25:42;99458.56;;;19.51;63.08
54562;BME280;69047;53.358;-1.486;2023-07-28T10:28:30;99454.31;;;19.54;63.48
54562;BME280;69047;53.358;-1.486;2023-07-28T10:30:58;99452.84;;;19.56;64.10
54562;BME280;69047;53.358;-1.486;2023-07-28T10:33:35;99460.19;;;19.31;64.10
54562;BME280;69047;53.358;-1.486;2023-07-28T10:38:59;99452.72;;;18.58;66.45
54562;BME280;69047;53.358;-1.486;2023-07-28T10:41:25;99451.34;;;18.93;66.05
54562;BME280;69047;53.358;-1.486;2023-07-28T10:43:50;99447.31;;;19.23;65.36
54562;BME280;69047;53.358;-1.486;2023-07-28T10:46:18;99451.50;;;19.09;63.65
54562;BME280;69047;53.358;-1.486;2023-07-28T10:48:45;99450.44;;;19.22;63.64
54562;BME280;69047;53.358;-1.486;2023-07-28T10:51:21;99448.72;;;19.29;63.56
54562;BME280;69047;53.358;-1.486;2023-07-28T10:53:50;99444.81;;;19.51;61.85
54562;BME280;69047;53.358;-1.486;2023-07-28T10:56:15;99447.53;;;19.39;61.95
54562;BME280;69047;53.358;-1.486;2023-07-28T10:58:41;99436.84;;;19.58;62.89
54562;BME280;69047;53.358;-1.486;2023-07-28T11:01:06;99446.03;;;19.86;61.25
54562;BME280;69047;53.358;-1.486;2023-07-28T11:03:32;99447.31;;;20.13;58.35
54562;BME280;69047;53.358;-1.486;2023-07-28T11:05:58;99445.25;;;20.22;58.16
54562;BME280;69047;53.358;-1.486;2023-07-28T11:08:24;99443.53;;;20.06;58.09
54562;BME280;69047;53.358;-1.486;2023-07-28T11:10:50;99435.41;;;20.09;58.17
54562;BME280;69047;53.358;-1.486;2023-07-28T11:13:15;99435.28;;;20.18;58.53
54562;BME280;69047;53.358;-1.486;2023-07-28T11:15:41;99433.69;;;20.17;58.73
54562;BME280;69047;53.358;-1.486;2023-07-28T11:18:06;99432.53;;;19.81;60.28
54562;BME280;69047;53.358;-1.486;2023-07-28T11:20:32;99430.78;;;19.65;60.44
54562;BME280;69047;53.358;-1.486;2023-07-28T11:23:02;99437.00;;;20.10;59.79
54562;BME280;69047;53.358;-1.486;2023-07-28T11:25:31;99429.00;;;20.05;58.89
54562;BME280;69047;53.358;-1.486;2023-07-28T11:27:57;99425.97;;;20.59;57.16
54562;BME280;69047;53.358;-1.486;2023-07-28T11:30:23;99429.44;;;20.56;57.92
54562;BME280;69047;53.358;-1.486;2023-07-28T11:32:50;99436.19;;;20.46;55.62
54562;BME280;69047;53.358;-1.486;2023-07-28T11:35:18;99430.13;;;20.40;56.53
54562;BME280;69047;53.358;-1.486;2023-07-28T11:37:45;99428.47;;;20.76;54.58
54562;BME280;69047;53.358;-1.486;2023-07-28T11:40:15;99439.25;;;20.81;56.04
54562;BME280;69047;53.358;-1.486;2023-07-28T11:42:44;99431.88;;;20.85;55.78
54562;BME280;69047;53.358;-1.486;2023-07-28T11:45:12;99414.72;;;21.16;57.01
54562;BME280;69047;53.358;-1.486;2023-07-28T11:47:38;99425.41;;;21.33;53.56
54562;BME280;69047;53.358;-1.486;2023-07-28T11:50:04;99421.59;;;21.37;53.80
54562;BME280;69047;53.358;-1.486;2023-07-28T11:52:31;99425.28;;;21.14;53.47
54562;BME280;69047;53.358;-1.486;2023-07-28T11:55:00;99420.91;;;21.13;53.18
54562;BME280;69047;53.358;-1.486;2023-07-28T11:57:27;99430.88;;;21.17;53.43
54562;BME280;69047;53.358;-1.486;2023-07-28T11:59:56;99419.19;;;21.20;52.69
54562;BME280;69047;53.358;-1.486;2023-07-28T12:02:26;99422.97;;;21.16;52.40
54562;BME280;69047;53.358;-1.486;2023-07-28T12:04:53;99434.59;;;20.97;54.89
54562;BME280;69047;53.358;-1.486;2023-07-28T12:07:27;99424.81;;;21.39;54.85
54562;BME280;69047;53.358;-1.486;2023-07-28T12:09:53;99421.72;;;21.57;50.74
54562;BME280;69047;53.358;-1.486;2023-07-28T12:12:21;99429.16;;;21.40;55.05
54562;BME280;69047;53.358;-1.486;2023-07-28T12:14:47;99432.94;;;21.64;50.31
54562;BME280;69047;53.358;-1.486;2023-07-28T12:17:17;99422.06;;;21.55;49.96
54562;BME280;69047;53.358;-1.486;2023-07-28T12:20:02;99426.06;;;21.58;50.92
54562;BME280;69047;53.358;-1.486;2023-07-28T12:22:36;99424.94;;;21.59;51.85
54562;BME280;69047;53.358;-1.486;2023-07-28T12:25:01;99426.38;;;21.68;52.06
54562;BME280;69047;53.358;-1.486;2023-07-28T12:27:27;99415.50;;;21.60;50.75
54562;BME280;69047;53.358;-1.486;2023-07-28T12:29:53;99418.44;;;21.67;50.48
54562;BME280;69047;53.358;-1.486;2023-07-28T12:32:18;99415.88;;;21.74;50.17
54562;BME280;69047;53.358;-1.486;2023-07-28T12:34:44;99420.22;;;21.75;50.13
54562;BME280;69047;53.358;-1.486;2023-07-28T12:37:09;99418.34;;;21.79;49.34
54562;BME280;69047;53.358;-1.486;2023-07-28T12:39:37;99412.47;;;21.80;49.13
54562;BME280;69047;53.358;-1.486;2023-07-28T12:42:08;99410.81;;;21.76;50.26
54562;BME280;69047;53.358;-1.486;2023-07-28T12:44:34;99411.69;;;22.11;49.72
54562;BME280;69047;53.358;-1.486;2023-07-28T12:47:00;99416.06;;;21.96;50.03
54562;BME280;69047;53.358;-1.486;2023-07-28T12:49:25;99419.03;;;22.38;48.47
54562;BME280;69047;53.358;-1.486;2023-07-28T12:51:51;99406.69;;;22.67;47.60
54562;BME280;69047;53.358;-1.486;2023-07-28T12:54:16;99411.97;;;22.56;47.84
54562;BME280;69047;53.358;-1.486;2023-07-28T12:56:42;99415.84;;;22.36;48.18
54562;BME280;69047;53.358;-1.486;2023-07-28T12:59:08;99421.72;;;22.35;45.49
54562;BME280;69047;53.358;-1.486;2023-07-28T13:01:36;99419.78;;;22.20;48.53